Time;durP1;ratioP1;P1;durP2;ratioP2;P2;SDS_P1;SDS_P2;PMS_P1;PMS_P2;Temp;Humidity;BMP_temperature;BMP_pressure;BME280_temperature;BME280_humidity;BME280_pressure;Samples;Min_cycle;Max_cycle;Signal;HPM_P1;HPM_P2
2023/04/11 16:45:50;;;;;;;689.90;323.53;;;;;;;;;;5050239;27;20669;-53
2023/04/11 16:48:15;;;;;;;728.23;312.10;;;;;;;;;;5070101;28;20298;-52
2023/04/11 16:50:42;;;;;;;710.60;296.80;;;;;;;;;;5061723;28;20392;-53
2023/04/11 16:53:08;;;;;;;714.70;312.67;;;;;;;;;;5061152;28;20202;-52
2023/04/11 16:55:34;;;;;;;794.10;330.13;;;;;;;;;;5060913;28;20314;-53
2023/04/11 16:58:00;;;;;;;667.30;273.83;;;;;;;;;;5068012;28;20389;-53
2023/04/11 17:03:08;;;;;;;723.80;334.10;;;;;;;;;;5054951;27;25121;-53
2023/04/11 17:05:34;;;;;;;736.57;329.83;;;;;;;;;;5035678;28;20356;-53
2023/04/11 17:08:00;;;;;;;607.90;268.87;;;;;;;;;;5027275;28;20240;-51
2023/04/11 17:10:27;;;;;;;616.67;269.87;;;;;;;;;;5037131;28;20255;-52
2023/04/11 17:12:53;;;;;;;643.53;281.43;;;;;;;;;;5028300;28;20682;-52
2023/04/11 17:15:19;;;;;;;626.00;266.77;;;;;;;;;;5022544;28;20233;-53
2023/04/11 17:17:45;;;;;;;675.03;282.33;;;;;;;;;;5014932;28;20271;-52
2023/04/11 17:20:12;;;;;;;586.10;248.10;;;;;;;;;;5042294;28;21499;-52
2023/04/11 17:22:40;;;;;;;596.77;261.43;;;;;;;;;;5024950;28;20281;-53
2023/04/11 17:25:06;;;;;;;507.57;213.47;;;;;;;;;;5036974;28;20956;-53
2023/04/11 17:27:32;;;;;;;603.67;258.53;;;;;;;;;;5041810;28;20577;-52
2023/04/11 17:29:58;;;;;;;633.60;259.33;;;;;;;;;;5039557;28;20206;-51
2023/04/11 17:32:25;;;;;;;587.73;239.10;;;;;;;;;;5042403;28;20298;-53
2023/04/11 17:34:52;;;;;;;607.30;252.43;;;;;;;;;;5039126;28;20187;-53
2023/04/11 17:37:18;;;;;;;545.47;213.40;;;;;;;;;;5020815;28;20771;-53
2023/04/11 17:39:45;;;;;;;575.43;235.47;;;;;;;;;;5021511;28;20300;-53
2023/04/11 17:42:12;;;;;;;569.83;226.77;;;;;;;;;;5047574;28;20746;-51
2023/04/11 17:44:39;;;;;;;513.27;187.50;;;;;;;;;;5041655;28;20218;-52
2023/04/11 17:47:06;;;;;;;525.53;184.07;;;;;;;;;;5054826;28;20618;-52
2023/04/11 17:49:32;;;;;;;558.93;203.53;;;;;;;;;;5055207;28;20288;-53
2023/04/11 17:51:58;;;;;;;534.83;194.10;;;;;;;;;;5047229;28;20211;-53
2023/04/11 17:54:24;;;;;;;628.20;222.13;;;;;;;;;;5050181;28;20218;-52
2023/04/11 17:56:51;;;;;;;595.37;204.87;;;;;;;;;;5037615;28;20307;-53
2023/04/11 17:59:18;;;;;;;547.10;167.40;;;;;;;;;;5032683;28;20229;-54
2023/04/11 18:01:45;;;;;;;571.83;170.53;;;;;;;;;;5036104;28;20219;-53
2023/04/11 18:04:13;;;;;;;525.87;162.03;;;;;;;;;;5020001;28;20804;-53
2023/04/11 18:06:40;;;;;;;578.57;166.60;;;;;;;;;;5039036;28;20716;-53
2023/04/11 18:09:06;;;;;;;445.30;130.53;;;;;;;;;;5031267;28;20357;-53
2023/04/11 18:11:33;;;;;;;559.83;186.63;;;;;;;;;;5036883;28;20214;-54
2023/04/11 18:13:59;;;;;;;465.97;141.40;;;;;;;;;;5047215;28;20470;-53
2023/04/11 18:16:25;;;;;;;514.60;174.63;;;;;;;;;;5030997;28;20192;-53
2023/04/11 18:18:51;;;;;;;579.17;207.47;;;;;;;;;;5024845;28;20575;-52
2023/04/11 18:21:20;;;;;;;432.97;159.83;;;;;;;;;;4989453;28;20214;-52
2023/04/11 18:23:46;;;;;;;548.90;172.80;;;;;;;;;;5007294;28;20215;-53
2023/04/11 18:26:12;;;;;;;459.30;153.17;;;;;;;;;;5022502;28;20661;-54
2023/04/11 18:28:38;;;;;;;609.60;195.60;;;;;;;;;;5031287;28;20239;-53
2023/04/11 18:31:04;;;;;;;465.87;158.20;;;;;;;;;;5023042;28;20239;-53
2023/04/11 18:33:31;;;;;;;513.30;163.63;;;;;;;;;;5005276;28;20271;-54
2023/04/11 18:35:57;;;;;;;577.93;179.67;;;;;;;;;;5024763;28;20345;-52
2023/04/11 18:38:23;;;;;;;591.20;145.93;;;;;;;;;;5023993;28;20266;-53
2023/04/11 18:40:50;;;;;;;418.33;100.03;;;;;;;;;;5028751;28;20233;-53
2023/04/11 18:43:16;;;;;;;490.10;103.70;;;;;;;;;;5026646;28;20242;-53
2023/04/11 18:45:42;;;;;;;581.30;152.83;;;;;;;;;;4991139;28;20204;-53
2023/04/11 18:48:08;;;;;;;472.83;108.43;;;;;;;;;;5002589;28;20294;-54
2023/04/11 18:50:37;;;;;;;614.80;147.50;;;;;;;;;;5000549;28;20219;-53
2023/04/11 18:53:03;;;;;;;504.73;124.63;;;;;;;;;;5005062;28;20613;-52
2023/04/11 18:55:29;;;;;;;536.77;127.17;;;;;;;;;;4998377;28;20192;-53
2023/04/11 18:57:56;;;;;;;522.80;132.97;;;;;;;;;;4999642;28;20302;-52
2023/04/11 19:00:22;;;;;;;535.93;124.67;;;;;;;;;;4998580;28;20722;-53
2023/04/11 19:02:49;;;;;;;667.43;166.27;;;;;;;;;;4998083;28;20589;-53
2023/04/11 19:05:16;;;;;;;509.23;120.33;;;;;;;;;;4995168;28;20188;-53
2023/04/11 19:07:43;;;;;;;622.47;150.20;;;;;;;;;;4992454;28;20743;-53
2023/04/11 19:10:09;;;;;;;432.77;92.23;;;;;;;;;;5000430;28;20212;-53
2023/04/11 19:12:36;;;;;;;530.47;119.87;;;;;;;;;;5002624;28;20499;-53
2023/04/11 19:15:02;;;;;;;462.60;94.43;;;;;;;;;;4999463;28;20227;-53
2023/04/11 19:17:29;;;;;;;462.23;96.57;;;;;;;;;;5008559;28;20227;-52
2023/04/11 19:19:55;;;;;;;538.23;118.67;;;;;;;;;;5002695;28;20283;-52
2023/04/11 19:22:21;;;;;;;524.03;108.03;;;;;;;;;;4984640;28;20307;-54
2023/04/11 19:24:48;;;;;;;667.33;150.03;;;;;;;;;;4990839;28;20556;-53
2023/04/11 19:27:17;;;;;;;506.43;109.50;;;;;;;;;;4995057;28;20314;-52
2023/04/11 19:29:43;;;;;;;596.33;125.53;;;;;;;;;;5005276;28;20250;-51
2023/04/11 19:32:10;;;;;;;591.10;122.17;;;;;;;;;;4997503;28;20503;-52
2023/04/11 19:34:36;;;;;;;594.07;127.47;;;;;;;;;;4994636;28;20576;-52
2023/04/11 19:37:02;;;;;;;464.43;93.10;;;;;;;;;;4989568;28;20211;-53
2023/04/11 19:39:34;;;;;;;474.17;98.03;;;;;;;;;;4993220;28;20564;-52
2023/04/11 19:42:01;;;;;;;589.67;113.77;;;;;;;;;;5004849;28;20306;-53
2023/04/11 19:44:29;;;;;;;593.27;121.30;;;;;;;;;;4994204;28;20275;-53
2023/04/11 19:46:55;;;;;;;594.33;123.77;;;;;;;;;;4996217;28;20183;-53
2023/04/11 19:49:21;;;;;;;454.10;90.20;;;;;;;;;;5004828;28;20224;-53
2023/04/11 19:51:47;;;;;;;556.17;108.07;;;;;;;;;;4998910;28;20460;-51
2023/04/11 19:54:13;;;;;;;432.50;85.13;;;;;;;;;;4991451;28;20254;-53
2023/04/11 19:56:43;;;;;;;533.73;104.90;;;;;;;;;;4996167;28;20848;-51
2023/04/11 19:59:09;;;;;;;509.80;105.87;;;;;;;;;;5001336;28;20192;-54
2023/04/11 20:01:35;;;;;;;608.37;123.60;;;;;;;;;;4997259;28;20352;-52
2023/04/11 20:04:01;;;;;;;494.97;93.53;;;;;;;;;;5003464;28;20283;-53
2023/04/11 20:06:28;;;;;;;603.47;117.23;;;;;;;;;;4988536;28;20638;-53
2023/04/11 20:08:54;;;;;;;642.93;134.13;;;;;;;;;;4983138;28;20963;-53
2023/04/11 20:11:24;;;;;;;583.90;121.20;;;;;;;;;;4980488;28;20239;-54
2023/04/11 20:13:50;;;;;;;483.00;99.73;;;;;;;;;;4991159;28;20700;-53
2023/04/11 20:16:20;;;;;;;578.30;114.90;;;;;;;;;;4988529;28;20224;-53
2023/04/11 20:18:46;;;;;;;657.27;137.23;;;;;;;;;;4992804;28;20347;-52
2023/04/11 20:21:13;;;;;;;416.70;83.00;;;;;;;;;;5005538;28;20355;-53
2023/04/11 20:23:40;;;;;;;567.00;113.97;;;;;;;;;;4984844;28;20281;-52
2023/04/11 20:26:06;;;;;;;506.40;99.40;;;;;;;;;;4990238;28;20389;-54
2023/04/11 20:28:33;;;;;;;501.23;94.00;;;;;;;;;;4982246;28;20247;-53
2023/04/11 20:30:59;;;;;;;511.50;96.23;;;;;;;;;;4980564;28;20220;-53
2023/04/11 20:33:25;;;;;;;519.90;99.40;;;;;;;;;;5007570;28;20227;-53
2023/04/11 20:35:54;;;;;;;533.93;102.97;;;;;;;;;;5006531;28;20387;-52
2023/04/11 20:38:21;;;;;;;401.33;80.27;;;;;;;;;;5004301;28;20215;-53
2023/04/11 20:40:47;;;;;;;520.87;104.03;;;;;;;;;;5010776;28;20378;-52
2023/04/11 20:43:15;;;;;;;482.00;88.63;;;;;;;;;;5006444;28;20220;-52
2023/04/11 20:45:41;;;;;;;525.43;106.30;;;;;;;;;;4996856;28;21294;-52
2023/04/11 20:48:11;;;;;;;482.37;100.87;;;;;;;;;;4998305;28;20584;-52
2023/04/11 20:50:37;;;;;;;414.53;74.73;;;;;;;;;;5018183;28;20362;-53
2023/04/11 20:53:04;;;;;;;462.97;88.97;;;;;;;;;;5020199;28;20248;-53
2023/04/11 20:55:32;;;;;;;504.00;92.63;;;;;;;;;;4999152;28;20390;-53
2023/04/11 20:57:58;;;;;;;572.53;113.37;;;;;;;;;;4996880;28;20318;-51
2023/04/11 21:00:24;;;;;;;453.13;87.63;;;;;;;;;;4999366;28;20216;-54
2023/04/11 21:02:51;;;;;;;561.30;109.10;;;;;;;;;;4998565;28;20223;-54
2023/04/11 21:05:20;;;;;;;556.13;115.13;;;;;;;;;;4998229;28;20271;-54
2023/04/11 21:07:47;;;;;;;532.23;105.53;;;;;;;;;;4997518;28;20238;-54
2023/04/11 21:10:14;;;;;;;422.77;82.00;;;;;;;;;;5010989;28;20564;-53
2023/04/11 21:12:40;;;;;;;498.17;103.00;;;;;;;;;;5010301;28;20303;-54
2023/04/11 21:15:07;;;;;;;594.47;129.97;;;;;;;;;;5005993;28;20260;-52
2023/04/11 21:17:34;;;;;;;538.93;110.23;;;;;;;;;;5004746;28;20696;-52
2023/04/11 21:20:00;;;;;;;574.20;119.20;;;;;;;;;;5003928;28;20210;-54
2023/04/11 21:22:26;;;;;;;434.53;87.80;;;;;;;;;;4996060;28;20180;-53
2023/04/11 21:24:52;;;;;;;466.53;103.57;;;;;;;;;;5007986;28;20224;-52
2023/04/11 21:27:18;;;;;;;449.37;88.77;;;;;;;;;;5003979;28;20271;-53
2023/04/11 21:29:45;;;;;;;516.27;105.50;;;;;;;;;;5007880;28;20307;-52
2023/04/11 21:32:11;;;;;;;470.23;93.87;;;;;;;;;;5014191;28;20208;-52
2023/04/11 21:34:37;;;;;;;522.93;100.97;;;;;;;;;;5012528;28;20378;-52
2023/04/11 21:37:03;;;;;;;481.70;89.63;;;;;;;;;;4999520;28;20293;-52
2023/04/11 21:39:29;;;;;;;452.07;86.83;;;;;;;;;;4996643;28;20545;-54
2023/04/11 21:41:55;;;;;;;604.47;121.20;;;;;;;;;;5008972;28;20208;-53
2023/04/11 21:44:21;;;;;;;496.70;99.87;;;;;;;;;;5008865;28;20630;-53
2023/04/11 21:46:47;;;;;;;487.47;93.63;;;;;;;;;;5004810;28;20311;-52
2023/04/11 21:49:13;;;;;;;566.17;111.80;;;;;;;;;;5007001;28;20553;-52
2023/04/11 21:51:39;;;;;;;535.17;108.20;;;;;;;;;;5008899;28;20262;-54
2023/04/11 21:54:05;;;;;;;477.70;89.97;;;;;;;;;;5015930;28;20216;-57
2023/04/11 21:56:32;;;;;;;497.33;89.93;;;;;;;;;;5014789;28;20239;-57
2023/04/11 21:58:58;;;;;;;579.87;112.23;;;;;;;;;;5013263;28;20286;-57
2023/04/11 22:01:24;;;;;;;492.57;95.07;;;;;;;;;;5007277;28;20310;-57
2023/04/11 22:03:50;;;;;;;565.17;110.40;;;;;;;;;;5001512;28;20357;-57
2023/04/11 22:06:17;;;;;;;454.80;88.93;;;;;;;;;;5003584;28;20234;-58
2023/04/11 22:08:49;;;;;;;594.20;205.17;;;;;;;;;;4998931;28;20287;-57
2023/04/11 22:11:16;;;;;;;622.00;251.20;;;;;;;;;;4995478;28;20587;-57
2023/04/11 22:13:45;;;;;;;635.57;236.80;;;;;;;;;;5004587;28;20188;-57
2023/04/11 22:16:12;;;;;;;502.80;186.50;;;;;;;;;;5002883;28;20208;-57
2023/04/11 22:18:45;;;;;;;505.83;195.93;;;;;;;;;;5008920;28;20208;-57
2023/04/11 22:21:18;;;;;;;561.57;220.33;;;;;;;;;;5000313;28;20266;-55
2023/04/11 22:23:47;;;;;;;604.93;230.90;;;;;;;;;;5011883;28;20244;-57
2023/04/11 22:26:13;;;;;;;662.17;256.90;;;;;;;;;;4994182;28;20267;-57
2023/04/11 22:28:41;;;;;;;623.67;247.17;;;;;;;;;;5007381;28;20188;-57
2023/04/11 22:31:08;;;;;;;658.90;250.67;;;;;;;;;;4997767;28;21189;-57
2023/04/11 22:33:35;;;;;;;662.43;273.83;;;;;;;;;;5004296;28;20781;-57
2023/04/11 22:36:02;;;;;;;776.40;323.17;;;;;;;;;;5001163;28;21301;-57
2023/04/11 22:38:30;;;;;;;679.77;280.10;;;;;;;;;;5003799;28;20643;-57
2023/04/11 22:47:14;;;;;;;485.87;197.27;;;;;;;;;;5073035;27;20320;-56
2023/04/11 22:49:41;;;;;;;673.10;267.37;;;;;;;;;;5008834;28;20227;-56
2023/04/11 22:52:14;;;;;;;705.90;290.57;;;;;;;;;;4987197;28;20858;-56
2023/04/11 22:57:04;;;;;;;669.03;298.73;;;;;;;;;;5067197;27;20600;-54
2023/04/11 22:59:30;;;;;;;634.70;259.73;;;;;;;;;;5039842;28;20215;-54
2023/04/11 23:01:56;;;;;;;550.83;230.03;;;;;;;;;;5054513;28;20496;-54
2023/04/11 23:04:23;;;;;;;602.53;251.37;;;;;;;;;;5051379;28;20211;-57
